• Join FlightAware (Why Join?)
  • Login
  • US Flag 
11:55AM EDT


 

Airport Tracker/Info


-or-


 

Live Flight TrackerFlight Track Log ✈ KAP927 ✈ 26-Jun-2013 ✈ KALB - KOGS

Flight Track Log - Related Links

Times and Time Zones

All times are in EDT time to prevent confusion due to time zone crossing. See the KAP927 flight status page for this flight to view local times or setup timezone preferences in your user account.

Time Position Orientation Groundspeed Altitude Reporting Facility
EDT Latitude Longitude Course Direction KTS MPH feet Rate Location/Type
02:51PM 42.7903 -73.8067 355° North 121 139 1,300  Level Boston Center
02:52PM 42.8194 -73.8158 347° North 116 133 1,800 420 Climbing Boston Center
02:53PM 42.8567 -73.8278 347° North 114 131 2,200 420 Climbing Boston Center
02:54PM 42.8858 -73.8286 359° North 117 135 2,700 600 Climbing Boston Center
02:54PM 42.9128 -73.8406 342° North 116 133 3,300 480 Climbing Boston Center
02:55PM 42.9461 -73.8442 355° North 111 128 3,700 420 Climbing Boston Center
02:57PM 42.9753 -73.8533 347° North 113 130 4,200 480 Climbing Boston Center
02:58PM 43.0083 -73.8597 352° North 113 130 4,700 480 Climbing Boston Center
02:59PM 43.0397 -73.8661 352° North 114 131 5,200 420 Climbing Boston Center
03:00PM 43.0708 -73.8783 344° North 116 133 5,600 360 Climbing Boston Center
03:01PM 43.0997 -73.8875 347° North 116 133 6,000 360 Climbing Boston Center
03:02PM 43.1372 -73.8969 350° North 121 139 6,400 360 Climbing Boston Center
03:03PM 43.1664 -73.9033 351° North 126 145 6,800 480 Climbing Boston Center
03:04PM 43.2036 -73.9128 350° North 126 145 7,400 480 Climbing Boston Center
03:05PM 43.2369 -73.9192 352° North 126 145 7,800 420 Climbing Boston Center
03:06PM 43.2722 -73.9314 346° North 126 145 8,300 360 Climbing Boston Center
03:07PM 43.3033 -73.9408 348° North 120 138 8,700 300 Climbing Boston Center
03:08PM 43.3492 -73.9447 356° North 125 144 9,000 180 Climbing Boston Center
03:09PM 43.3928 -73.9544 351° North 144 166 9,100  Climbing Boston Center
03:10PM 43.4386 -73.9614 354° North 151 174 9,100  Level Boston Center
03:11PM 43.4842 -73.9767 346° North 164 189 9,100  Level Boston Center
03:12PM 43.5300 -73.9894 349° North 164 189 9,100  Level Boston Center
03:13PM 43.5733 -74.0019 348° North 159 183 9,100  Level Boston Center
03:14PM 43.6169 -74.0144 348° North 159 183 9,100  Level Boston Center
03:15PM 43.6606 -74.0242 351° North 159 183 9,100  Level Boston Center
03:16PM 43.7000 -74.0367 347° North 161 185 9,100  Level Boston Center
03:17PM 43.7436 -74.0467 351° North 161 185 9,100  Level Boston Center
03:18PM 43.7894 -74.0564 351° North 161 185 9,100  Level Boston Center
03:19PM 43.8331 -74.0692 348° North 161 185 9,100  Level Boston Center
03:20PM 43.8767 -74.0819 348° North 161 185 9,100  Level Boston Center
03:21PM 43.9203 -74.0917 351° North 161 185 9,100 -60 Level Boston Center
03:22PM 43.9617 -74.1014 350° North 161 185 9,000 -240 Descending Boston Center
03:23PM 44.0136 -74.1144 350° North 161 185 8,700 -360 Descending Boston Center
03:24PM 44.0511 -74.1242 349° North 161 185 8,300 -300 Descending Boston Center
03:25PM 44.1008 -74.1372 349° North 166 191 8,100 -120 Descending Boston Center
03:26PM 44.1467 -74.1472 351° North 166 191 8,100  Level Boston Center
03:27PM 44.1900 -74.1600 348° North 161 185 8,100  Level Boston Center
03:28PM 44.2317 -74.1669 353° North 161 185 8,100 -180 Level Boston Center
03:29PM 44.2753 -74.1769 351° North 156 180 7,800 -480 Descending Boston Center
03:30PM 44.3272 -74.1872 352° North 167 192 7,200 -360 Descending Boston Center
03:31PM 44.3731 -74.1972 351° North 172 198 7,100 -60 Descending Boston Center
03:32PM 44.4142 -74.2333 328° Northwest 165 190 7,100  Level Boston Center
03:33PM 44.4469 -74.2661 324° Northwest 153 176 7,100  Level Boston Center
03:34PM 44.4858 -74.3053 324° Northwest 159 183 7,100  Level Boston Center
03:35PM 44.5036 -74.3611 294° West 149 171 7,100  Level Boston Center
03:36PM 44.5172 -74.4169 289° West 149 171 7,100  Level Boston Center
03:37PM 44.5331 -74.4700 293° West 149 171 7,100  Level Boston Center
03:38PM 44.5467 -74.5200 291° West 149 171 7,100  Level Boston Center
03:39PM 44.5603 -74.5728 290° West 149 171 7,100  Level Boston Center
03:40PM 44.5761 -74.6286 292° West 149 171 7,100 -300 Level Boston Center
03:41PM 44.5936 -74.6906 292° West 149 171 6,600 -540 Descending Boston Center
03:42PM 44.6133 -74.7497 295° West 157 181 6,100 -540 Descending Boston Center
03:43PM 44.6328 -74.8175 292° West 170 196 5,600 -480 Descending Boston Center
03:44PM 44.6522 -74.8825 293° West 178 205 5,200 -480 Descending Boston Center
03:45PM 44.6697 -74.9417 293° West 172 198 4,700 -540 Descending Boston Center
03:46PM 44.6889 -75.0097 292° West 172 198 4,200 -480 Descending Boston Center
03:47PM 44.7083 -75.0806 291° West 172 198 3,800 -420 Descending Boston Center